sensor_id;sensor_type;location;lat;lon;timestamp;pressure;altitude;pressure_sealevel;temperature;humidity
4012;BME280;2020;48.682;9.024;2023-02-18T00:00:20;97372.56;;;9.35;87.96
4012;BME280;2020;48.682;9.024;2023-02-18T00:02:48;97365.47;;;9.38;87.90
4012;BME280;2020;48.682;9.024;2023-02-18T00:05:14;97376.00;;;9.36;87.81
4012;BME280;2020;48.682;9.024;2023-02-18T00:07:40;97363.03;;;9.36;87.63
4012;BME280;2020;48.682;9.024;2023-02-18T00:10:08;97363.81;;;9.36;87.47
4012;BME280;2020;48.682;9.024;2023-02-18T00:12:35;97365.47;;;9.38;87.45
4012;BME280;2020;48.682;9.024;2023-02-18T00:15:00;97356.97;;;9.35;87.17
4012;BME280;2020;48.682;9.024;2023-02-18T00:17:27;97366.44;;;9.36;87.00
4012;BME280;2020;48.682;9.024;2023-02-18T00:19:53;97355.09;;;9.38;87.33
4012;BME280;2020;48.682;9.024;2023-02-18T00:22:18;97363.56;;;9.40;87.16
4012;BME280;2020;48.682;9.024;2023-02-18T00:24:43;97354.84;;;9.41;86.66
4012;BME280;2020;48.682;9.024;2023-02-18T00:27:08;97359.22;;;9.40;86.68
4012;BME280;2020;48.682;9.024;2023-02-18T00:29:34;97353.19;;;9.40;86.60
4012;BME280;2020;48.682;9.024;2023-02-18T00:31:59;97354.03;;;9.40;86.83
4012;BME280;2020;48.682;9.024;2023-02-18T00:34:25;97350.72;;;9.38;86.82
4012;BME280;2020;48.682;9.024;2023-02-18T00:36:50;97352.38;;;9.39;86.98
4012;BME280;2020;48.682;9.024;2023-02-18T00:39:15;97352.50;;;9.38;86.92
4012;BME280;2020;48.682;9.024;2023-02-18T00:41:41;97363.81;;;9.36;87.01
4012;BME280;2020;48.682;9.024;2023-02-18T00:44:07;97363.81;;;9.36;87.09
4012;BME280;2020;48.682;9.024;2023-02-18T00:46:33;97351.78;;;9.35;86.95
4012;BME280;2020;48.682;9.024;2023-02-18T00:48:58;97339.75;;;9.34;86.69
4012;BME280;2020;48.682;9.024;2023-02-18T00:51:24;97328.66;;;9.32;86.70
4012;BME280;2020;48.682;9.024;2023-02-18T00:53:49;97323.47;;;9.32;86.81
4012;BME280;2020;48.682;9.024;2023-02-18T00:56:15;97327.97;;;9.30;86.51
4012;BME280;2020;48.682;9.024;2023-02-18T00:58:40;97334.81;;;9.31;86.28
4012;BME280;2020;48.682;9.024;2023-02-18T01:01:06;97326.06;;;9.32;86.57
4012;BME280;2020;48.682;9.024;2023-02-18T01:03:32;97326.75;;;9.34;86.29
4012;BME280;2020;48.682;9.024;2023-02-18T01:05:59;97336.19;;;9.35;86.08
4012;BME280;2020;48.682;9.024;2023-02-18T01:08:24;97334.31;;;9.38;86.10
4012;BME280;2020;48.682;9.024;2023-02-18T01:10:53;97332.66;;;9.36;86.05
4012;BME280;2020;48.682;9.024;2023-02-18T01:13:19;97329.34;;;9.34;85.84
4012;BME280;2020;48.682;9.024;2023-02-18T01:15:45;97334.56;;;9.34;86.14
4012;BME280;2020;48.682;9.024;2023-02-18T01:18:11;97331.84;;;9.36;85.48
4012;BME280;2020;48.682;9.024;2023-02-18T01:20:38;97317.72;;;9.29;85.94
4012;BME280;2020;48.682;9.024;2023-02-18T01:23:04;97324.66;;;9.28;85.75
4012;BME280;2020;48.682;9.024;2023-02-18T01:25:30;97324.66;;;9.28;85.54
4012;BME280;2020;48.682;9.024;2023-02-18T01:27:55;97323.28;;;9.24;85.37
4012;BME280;2020;48.682;9.024;2023-02-18T01:30:21;97313.13;;;9.21;85.73
4012;BME280;2020;48.682;9.024;2023-02-18T01:32:46;97315.59;;;9.22;85.36
4012;BME280;2020;48.682;9.024;2023-02-18T01:35:14;97306.16;;;9.21;85.44
4012;BME280;2020;48.682;9.024;2023-02-18T01:37:40;97296.84;;;9.19;85.37
4012;BME280;2020;48.682;9.024;2023-02-18T01:40:06;97305.69;;;9.16;85.46
4012;BME280;2020;48.682;9.024;2023-02-18T01:42:31;97307.59;;;9.14;85.52
4012;BME280;2020;48.682;9.024;2023-02-18T01:47:53;97305.16;;;9.13;85.00
4012;BME280;2020;48.682;9.024;2023-02-18T01:50:18;97301.47;;;9.15;85.11
4012;BME280;2020;48.682;9.024;2023-02-18T01:52:44;97296.16;;;9.17;84.66
4012;BME280;2020;48.682;9.024;2023-02-18T01:55:09;97297.81;;;9.18;84.69
4012;BME280;2020;48.682;9.024;2023-02-18T01:57:36;97293.56;;;9.17;84.48
4012;BME280;2020;48.682;9.024;2023-02-18T02:00:05;97294.25;;;9.19;84.18
4012;BME280;2020;48.682;9.024;2023-02-18T02:02:34;97301.09;;;9.20;84.19
4012;BME280;2020;48.682;9.024;2023-02-18T02:05:02;97292.34;;;9.21;83.90
4012;BME280;2020;48.682;9.024;2023-02-18T02:07:28;97301.09;;;9.20;83.64
4012;BME280;2020;48.682;9.024;2023-02-18T02:09:55;97294.00;;;9.22;83.70
4012;BME280;2020;48.682;9.024;2023-02-18T02:12:38;97294.00;;;9.22;83.39
4012;BME280;2020;48.682;9.024;2023-02-18T02:27:02;97277.44;;;9.02;84.29
4012;BME280;2020;48.682;9.024;2023-02-18T02:37:13;97289.41;;;8.93;85.26
4012;BME280;2020;48.682;9.024;2023-02-18T02:40:06;97287.78;;;8.92;85.15
4012;BME280;2020;48.682;9.024;2023-02-18T02:45:37;97261.13;;;8.90;85.76
4012;BME280;2020;48.682;9.024;2023-02-18T02:53:42;97268.41;;;8.96;85.50
4012;BME280;2020;48.682;9.024;2023-02-18T02:56:17;97261.31;;;8.98;85.12
4012;BME280;2020;48.682;9.024;2023-02-18T02:58:43;97263.22;;;8.96;85.09
4012;BME280;2020;48.682;9.024;2023-02-18T03:01:32;97258.00;;;8.96;85.18
4012;BME280;2020;48.682;9.024;2023-02-18T03:04:08;97268.41;;;8.96;85.22
4012;BME280;2020;48.682;9.024;2023-02-18T03:10:00;97260.72;;;8.95;85.34
4012;BME280;2020;48.682;9.024;2023-02-18T03:12:35;97258.28;;;8.93;85.30
4012;BME280;2020;48.682;9.024;2023-02-18T03:15:09;97268.66;;;8.93;85.42
4012;BME280;2020;48.682;9.024;2023-02-18T03:17:46;97255.91;;;8.90;85.56
4012;BME280;2020;48.682;9.024;2023-02-18T03:20:35;97260.97;;;8.91;85.67
4012;BME280;2020;48.682;9.024;2023-02-18T03:23:06;97256.63;;;8.92;85.83
4012;BME280;2020;48.682;9.024;2023-02-18T03:25:33;97256.63;;;8.92;85.34
4012;BME280;2020;48.682;9.024;2023-02-18T03:28:11;97259.06;;;8.93;85.52
4012;BME280;2020;48.682;9.024;2023-02-18T03:30:49;97251.44;;;8.92;85.75
4012;BME280;2020;48.682;9.024;2023-02-18T03:33:20;97245.97;;;8.95;85.50
4012;BME280;2020;48.682;9.024;2023-02-18T03:35:49;97236.81;;;8.91;85.29
4012;BME280;2020;48.682;9.024;2023-02-18T03:38:28;97239.13;;;8.94;84.93
4012;BME280;2020;48.682;9.024;2023-02-18T03:40:57;97237.06;;;8.88;85.27
4012;BME280;2020;48.682;9.024;2023-02-18T03:43:23;97234.97;;;8.82;85.58
4012;BME280;2020;48.682;9.024;2023-02-18T03:45:48;97232.63;;;8.78;85.57
4012;BME280;2020;48.682;9.024;2023-02-18T03:48:13;97231.06;;;8.76;85.94
4012;BME280;2020;48.682;9.024;2023-02-18T03:50:38;97230.28;;;8.75;85.54
4012;BME280;2020;48.682;9.024;2023-02-18T03:53:04;97244.19;;;8.74;86.00
4012;BME280;2020;48.682;9.024;2023-02-18T03:55:29;97234.06;;;8.71;85.89
4012;BME280;2020;48.682;9.024;2023-02-18T03:57:54;97237.47;;;8.72;85.69
4012;BME280;2020;48.682;9.024;2023-02-18T04:00:20;97240.66;;;8.75;85.62
4012;BME280;2020;48.682;9.024;2023-02-18T04:02:45;97233.13;;;8.72;85.33
4012;BME280;2020;48.682;9.024;2023-02-18T04:05:10;97235.97;;;8.69;85.41
4012;BME280;2020;48.682;9.024;2023-02-18T04:07:36;97243.03;;;8.67;85.64
4012;BME280;2020;48.682;9.024;2023-02-18T04:10:02;97238.09;;;8.64;85.33
4012;BME280;2020;48.682;9.024;2023-02-18T04:12:28;97232.91;;;8.64;85.29
4012;BME280;2020;48.682;9.024;2023-02-18T04:14:53;97238.47;;;8.59;85.34
4012;BME280;2020;48.682;9.024;2023-02-18T04:17:18;97242.00;;;8.58;85.47
4012;BME280;2020;48.682;9.024;2023-02-18T04:19:43;97231.72;;;8.57;85.40
4012;BME280;2020;48.682;9.024;2023-02-18T04:22:09;97241.41;;;8.55;85.54
4012;BME280;2020;48.682;9.024;2023-02-18T04:24:34;97227.63;;;8.54;85.34
4012;BME280;2020;48.682;9.024;2023-02-18T04:26:59;97233.88;;;8.52;85.79
4012;BME280;2020;48.682;9.024;2023-02-18T04:29:24;97236.47;;;8.52;85.76
4012;BME280;2020;48.682;9.024;2023-02-18T04:31:50;97229.16;;;8.45;85.38
4012;BME280;2020;48.682;9.024;2023-02-18T04:34:15;97229.78;;;8.49;85.71
4012;BME280;2020;48.682;9.024;2023-02-18T04:36:40;97226.22;;;8.50;85.70
4012;BME280;2020;48.682;9.024;2023-02-18T04:39:05;97224.81;;;8.46;85.83
4012;BME280;2020;48.682;9.024;2023-02-18T04:41:31;97216.88;;;8.47;85.68
4012;BME280;2020;48.682;9.024;2023-02-18T04:43:56;97223.00;;;8.46;85.82
4012;BME280;2020;48.682;9.024;2023-02-18T04:46:23;97225.59;;;8.46;85.88
4012;BME280;2020;48.682;9.024;2023-02-18T04:48:49;97233.53;;;8.45;85.73
4012;BME280;2020;48.682;9.024;2023-02-18T04:51:14;97242.41;;;8.31;86.86
4012;BME280;2020;48.682;9.024;2023-02-18T04:53:39;97235.81;;;8.27;87.34
4012;BME280;2020;48.682;9.024;2023-02-18T04:56:05;97229.47;;;8.19;87.80
4012;BME280;2020;48.682;9.024;2023-02-18T04:58:30;97229.72;;;8.16;88.88
4012;BME280;2020;48.682;9.024;2023-02-18T05:01:02;97226.66;;;8.11;89.34
4012;BME280;2020;48.682;9.024;2023-02-18T05:03:28;97225.00;;;8.10;89.75
4012;BME280;2020;48.682;9.024;2023-02-18T05:05:54;97230.19;;;8.10;90.09
4012;BME280;2020;48.682;9.024;2023-02-18T05:08:19;97223.34;;;8.09;90.60
4012;BME280;2020;48.682;9.024;2023-02-18T05:10:44;97224.06;;;8.11;90.91
4012;BME280;2020;48.682;9.024;2023-02-18T05:13:10;97225.72;;;8.12;90.92
4012;BME280;2020;48.682;9.024;2023-02-18T05:15:35;97221.38;;;8.13;90.90
4012;BME280;2020;48.682;9.024;2023-02-18T05:18:00;97226.41;;;8.14;91.45
4012;BME280;2020;48.682;9.024;2023-02-18T05:20:26;97230.78;;;8.14;92.06
4012;BME280;2020;48.682;9.024;2023-02-18T05:22:51;97225.47;;;8.15;92.00
4012;BME280;2020;48.682;9.024;2023-02-18T05:25:16;97224.53;;;8.16;92.07
4012;BME280;2020;48.682;9.024;2023-02-18T05:27:41;97228.41;;;8.22;92.15
4012;BME280;2020;48.682;9.024;2023-02-18T05:30:07;97227.56;;;8.22;92.15
4012;BME280;2020;48.682;9.024;2023-02-18T05:32:32;97224.50;;;8.28;91.69
4012;BME280;2020;48.682;9.024;2023-02-18T05:34:58;97229.22;;;8.23;91.83
4012;BME280;2020;48.682;9.024;2023-02-18T05:37:23;97234.41;;;8.23;92.11
4012;BME280;2020;48.682;9.024;2023-02-18T05:39:48;97232.50;;;8.25;92.40
4012;BME280;2020;48.682;9.024;2023-02-18T05:42:14;97221.34;;;8.24;92.59
4012;BME280;2020;48.682;9.024;2023-02-18T05:44:39;97230.63;;;8.27;92.49
4012;BME280;2020;48.682;9.024;2023-02-18T05:47:06;97221.56;;;8.21;93.13
4012;BME280;2020;48.682;9.024;2023-02-18T05:49:32;97217.19;;;8.22;93.64
4012;BME280;2020;48.682;9.024;2023-02-18T05:51:58;97221.81;;;8.18;94.37
4012;BME280;2020;48.682;9.024;2023-02-18T05:54:24;97220.75;;;8.20;94.41
4012;BME280;2020;48.682;9.024;2023-02-18T05:56:50;97225.34;;;8.17;94.92
4012;BME280;2020;48.682;9.024;2023-02-18T05:59:15;97212.00;;;8.22;94.42
4012;BME280;2020;48.682;9.024;2023-02-18T06:01:41;97211.06;;;8.23;94.10
4012;BME280;2020;48.682;9.024;2023-02-18T06:04:06;97210.13;;;8.24;94.27
4012;BME280;2020;48.682;9.024;2023-02-18T06:06:33;97218.84;;;8.23;94.35
4012;BME280;2020;48.682;9.024;2023-02-18T06:08:58;97224.03;;;8.23;94.57
4012;BME280;2020;48.682;9.024;2023-02-18T06:11:23;97216.38;;;8.21;94.52
4012;BME280;2020;48.682;9.024;2023-02-18T06:13:48;97207.31;;;8.15;95.00
4012;BME280;2020;48.682;9.024;2023-02-18T06:16:14;97203.78;;;8.16;95.02
4012;BME280;2020;48.682;9.024;2023-02-18T06:18:39;97194.72;;;8.11;95.24
4012;BME280;2020;48.682;9.024;2023-02-18T06:21:04;97195.53;;;8.11;95.48
4012;BME280;2020;48.682;9.024;2023-02-18T06:23:30;97207.56;;;8.12;95.58
4012;BME280;2020;48.682;9.024;2023-02-18T06:25:55;97206.63;;;8.13;95.52
4012;BME280;2020;48.682;9.024;2023-02-18T06:28:20;97210.03;;;8.14;95.55
4012;BME280;2020;48.682;9.024;2023-02-18T06:30:46;97210.84;;;8.14;95.74
4012;BME280;2020;48.682;9.024;2023-02-18T06:33:12;97210.84;;;8.14;95.48
4012;BME280;2020;48.682;9.024;2023-02-18T06:35:37;97205.66;;;8.14;95.88
4012;BME280;2020;48.682;9.024;2023-02-18T06:38:02;97200.22;;;8.17;95.63
4012;BME280;2020;48.682;9.024;2023-02-18T06:40:28;97204.13;;;8.23;95.02
4012;BME280;2020;48.682;9.024;2023-02-18T06:42:53;97205.88;;;8.23;94.97
4012;BME280;2020;48.682;9.024;2023-02-18T06:45:19;97208.47;;;8.23;94.97
4012;BME280;2020;48.682;9.024;2023-02-18T06:47:44;97211.53;;;8.28;94.72
4012;BME280;2020;48.682;9.024;2023-02-18T06:50:09;97207.72;;;8.32;94.38
4012;BME280;2020;48.682;9.024;2023-02-18T06:52:35;97204.44;;;8.30;94.37
4012;BME280;2020;48.682;9.024;2023-02-18T06:55:05;97202.53;;;8.32;94.47
4012;BME280;2020;48.682;9.024;2023-02-18T06:57:30;97208.44;;;8.34;94.46
4012;BME280;2020;48.682;9.024;2023-02-18T06:59:56;97205.97;;;8.32;94.58
4012;BME280;2020;48.682;9.024;2023-02-18T07:02:21;97215.50;;;8.32;94.84
4012;BME280;2020;48.682;9.024;2023-02-18T07:04:46;97207.72;;;8.32;94.70
4012;BME280;2020;48.682;9.024;2023-02-18T07:07:12;97209.38;;;8.33;94.53
4012;BME280;2020;48.682;9.024;2023-02-18T07:09:37;97210.22;;;8.33;94.57
4012;BME280;2020;48.682;9.024;2023-02-18T07:12:02;97208.44;;;8.34;94.34
4012;BME280;2020;48.682;9.024;2023-02-18T07:14:28;97207.50;;;8.35;94.45
4012;BME280;2020;48.682;9.024;2023-02-18T07:16:53;97212.44;;;8.38;94.03
4012;BME280;2020;48.682;9.024;2023-02-18T07:19:18;97217.38;;;8.41;93.56
4012;BME280;2020;48.682;9.024;2023-02-18T07:21:44;97209.22;;;8.46;93.09
4012;BME280;2020;48.682;9.024;2023-02-18T07:24:09;97214.41;;;8.46;92.97
4012;BME280;2020;48.682;9.024;2023-02-18T07:26:34;97215.84;;;8.50;92.01
4012;BME280;2020;48.682;9.024;2023-02-18T07:28:59;97216.16;;;8.57;90.93
4012;BME280;2020;48.682;9.024;2023-02-18T07:31:25;97210.25;;;8.66;89.82
4012;BME280;2020;48.682;9.024;2023-02-18T07:33:50;97202.66;;;8.74;88.06
4012;BME280;2020;48.682;9.024;2023-02-18T07:36:15;97200.25;;;8.83;87.32
4012;BME280;2020;48.682;9.024;2023-02-18T07:38:40;97203.31;;;8.88;86.70
4012;BME280;2020;48.682;9.024;2023-02-18T07:41:06;97202.53;;;8.97;86.27
4012;BME280;2020;48.682;9.024;2023-02-18T07:43:31;97192.72;;;9.01;85.90
4012;BME280;2020;48.682;9.024;2023-02-18T07:45:57;97188.09;;;9.04;85.87
4012;BME280;2020;48.682;9.024;2023-02-18T07:48:22;97184.84;;;9.12;85.11
4012;BME280;2020;48.682;9.024;2023-02-18T07:50:47;97183.53;;;9.18;84.12
4012;BME280;2020;48.682;9.024;2023-02-18T07:53:14;97174.50;;;9.22;84.22
4012;BME280;2020;48.682;9.024;2023-02-18T07:55:40;97188.19;;;9.24;84.05
4012;BME280;2020;48.682;9.024;2023-02-18T08:00:40;97190.16;;;9.32;83.09
4012;BME280;2020;48.682;9.024;2023-02-18T08:03:05;97182.22;;;9.33;82.88
4012;BME280;2020;48.682;9.024;2023-02-18T08:05:31;97182.41;;;9.42;82.59
4012;BME280;2020;48.682;9.024;2023-02-18T08:07:56;97164.78;;;9.45;81.97
4012;BME280;2020;48.682;9.024;2023-02-18T08:10:21;97177.63;;;9.47;82.24
4012;BME280;2020;48.682;9.024;2023-02-18T08:12:46;97176.41;;;9.51;81.29
4012;BME280;2020;48.682;9.024;2023-02-18T08:15:12;97184.22;;;9.51;81.90
4012;BME280;2020;48.682;9.024;2023-02-18T08:17:37;97181.59;;;9.51;81.71
4012;BME280;2020;48.682;9.024;2023-02-18T08:20:04;97178.06;;;9.52;82.02
4012;BME280;2020;48.682;9.024;2023-02-18T08:22:29;97177.09;;;9.53;81.81
4012;BME280;2020;48.682;9.024;2023-02-18T08:24:55;97175.19;;;9.55;81.64
4012;BME280;2020;48.682;9.024;2023-02-18T08:27:21;97187.81;;;9.60;81.40
4012;BME280;2020;48.682;9.024;2023-02-18T08:29:47;97177.97;;;9.63;81.66
4012;BME280;2020;48.682;9.024;2023-02-18T08:32:13;97176.03;;;9.65;81.19
4012;BME280;2020;48.682;9.024;2023-02-18T08:34:38;97172.22;;;9.70;81.14
4012;BME280;2020;48.682;9.024;2023-02-18T08:37:03;97178.81;;;9.74;80.09
4012;BME280;2020;48.682;9.024;2023-02-18T08:39:34;97167.44;;;9.75;80.27
4012;BME280;2020;48.682;9.024;2023-02-18T08:41:59;97173.34;;;9.77;80.13
4012;BME280;2020;48.682;9.024;2023-02-18T08:44:25;97162.94;;;9.77;79.96
4012;BME280;2020;48.682;9.024;2023-02-18T08:46:51;97168.72;;;9.80;79.91
4012;BME280;2020;48.682;9.024;2023-02-18T08:49:16;97172.53;;;9.86;80.01
4012;BME280;2020;48.682;9.024;2023-02-18T08:51:41;97155.72;;;9.90;79.84
4012;BME280;2020;48.682;9.024;2023-02-18T08:54:07;97161.09;;;9.99;78.69
4012;BME280;2020;48.682;9.024;2023-02-18T08:56:32;97156.44;;;10.02;78.10
4012;BME280;2020;48.682;9.024;2023-02-18T08:58:58;97149.88;;;10.08;78.41
4012;BME280;2020;48.682;9.024;2023-02-18T09:01:23;97160.28;;;10.08;78.32
4012;BME280;2020;48.682;9.024;2023-02-18T09:03:49;97146.59;;;10.16;77.95
4012;BME280;2020;48.682;9.024;2023-02-18T09:06:14;97150.44;;;10.21;77.44
4012;BME280;2020;48.682;9.024;2023-02-18T09:08:39;97148.53;;;10.23;77.29
4012;BME280;2020;48.682;9.024;2023-02-18T09:11:05;97138.13;;;10.23;77.07
4012;BME280;2020;48.682;9.024;2023-02-18T09:13:31;97138.25;;;10.22;77.33
4012;BME280;2020;48.682;9.024;2023-02-18T09:15:59;97155.09;;;10.28;76.91
4012;BME280;2020;48.682;9.024;2023-02-18T09:18:24;97140.75;;;10.43;76.03
4012;BME280;2020;48.682;9.024;2023-02-18T09:20:50;97144.00;;;10.55;75.70
4012;BME280;2020;48.682;9.024;2023-02-18T09:23:15;97137.28;;;10.72;74.75
4012;BME280;2020;48.682;9.024;2023-02-18T09:25:41;97133.38;;;10.96;73.48
4012;BME280;2020;48.682;9.024;2023-02-18T09:28:07;97119.28;;;11.36;72.75
4012;BME280;2020;48.682;9.024;2023-02-18T09:30:32;97123.34;;;11.49;71.99
4012;BME280;2020;48.682;9.024;2023-02-18T09:32:57;97120.34;;;11.44;71.95
4012;BME280;2020;48.682;9.024;2023-02-18T09:35:22;97121.41;;;11.51;72.14
4012;BME280;2020;48.682;9.024;2023-02-18T09:37:48;97124.31;;;11.48;71.61
4012;BME280;2020;48.682;9.024;2023-02-18T09:40:28;97111.84;;;11.41;71.64
4012;BME280;2020;48.682;9.024;2023-02-18T09:42:55;97111.84;;;11.41;71.47
4012;BME280;2020;48.682;9.024;2023-02-18T09:45:22;97120.94;;;11.37;72.24
4012;BME280;2020;48.682;9.024;2023-02-18T09:47:49;97110.50;;;11.37;71.30
4012;BME280;2020;48.682;9.024;2023-02-18T09:50:31;97117.28;;;11.48;71.02
4012;BME280;2020;48.682;9.024;2023-02-18T09:53:01;97124.16;;;11.49;71.21
4012;BME280;2020;48.682;9.024;2023-02-18T09:55:38;97125.56;;;11.44;71.03
4012;BME280;2020;48.682;9.024;2023-02-18T09:58:14;97129.13;;;11.43;71.38
4012;BME280;2020;48.682;9.024;2023-02-18T10:00:44;97120.16;;;11.27;71.82
4012;BME280;2020;48.682;9.024;2023-02-18T10:03:19;97139.78;;;11.11;72.39
4012;BME280;2020;48.682;9.024;2023-02-18T10:05:57;97153.66;;;11.02;73.03
4012;BME280;2020;48.682;9.024;2023-02-18T10:08:50;97143.78;;;11.06;72.74
4012;BME280;2020;48.682;9.024;2023-02-18T10:11:21;97133.91;;;11.09;72.17
4012;BME280;2020;48.682;9.024;2023-02-18T10:13:49;97150.03;;;11.23;72.02
4012;BME280;2020;48.682;9.024;2023-02-18T10:16:17;97133.31;;;11.16;71.27
4012;BME280;2020;48.682;9.024;2023-02-18T10:18:47;97142.69;;;11.08;72.05
4012;BME280;2020;48.682;9.024;2023-02-18T10:21:20;97125.97;;;11.01;71.83
4012;BME280;2020;48.682;9.024;2023-02-18T10:23:59;97115.28;;;11.04;72.50
4012;BME280;2020;48.682;9.024;2023-02-18T10:26:25;97126.25;;;11.08;72.44
4012;BME280;2020;48.682;9.024;2023-02-18T10:28:51;97128.00;;;11.07;71.77
4012;BME280;2020;48.682;9.024;2023-02-18T10:31:26;97135.16;;;11.05;71.71
4012;BME280;2020;48.682;9.024;2023-02-18T10:34:03;97138.03;;;11.02;71.67
4012;BME280;2020;48.682;9.024;2023-02-18T10:36:39;97153.66;;;11.02;71.95
4012;BME280;2020;48.682;9.024;2023-02-18T10:42:35;97149.59;;;10.90;71.90
4012;BME280;2020;48.682;9.024;2023-02-18T10:50:41;97162.44;;;11.01;71.58
4012;BME280;2020;48.682;9.024;2023-02-18T10:53:15;97144.88;;;11.03;71.38
4012;BME280;2020;48.682;9.024;2023-02-18T10:55:45;97144.59;;;11.06;70.96
4012;BME280;2020;48.682;9.024;2023-02-18T11:00:53;97155.31;;;11.03;71.13
4012;BME280;2020;48.682;9.024;2023-02-18T11:03:23;97148.16;;;11.05;71.10
4012;BME280;2020;48.682;9.024;2023-02-18T11:05:54;97147.78;;;11.00;70.76
4012;BME280;2020;48.682;9.024;2023-02-18T11:08:23;97137.47;;;11.08;70.67
4012;BME280;2020;48.682;9.024;2023-02-18T11:10:50;97138.81;;;11.12;70.45
4012;BME280;2020;48.682;9.024;2023-02-18T11:13:24;97136.59;;;11.18;70.22
4012;BME280;2020;48.682;9.024;2023-02-18T11:16:03;97129.75;;;11.17;70.02
4012;BME280;2020;48.682;9.024;2023-02-18T11:18:41;97117.41;;;11.19;69.56
4012;BME280;2020;48.682;9.024;2023-02-18T11:21:30;97120.59;;;11.12;69.75
4012;BME280;2020;48.682;9.024;2023-02-18T11:23:57;97119.34;;;11.17;69.72
4012;BME280;2020;48.682;9.024;2023-02-18T11:26:32;97117.69;;;11.16;69.60
4012;BME280;2020;48.682;9.024;2023-02-18T11:29:06;97105.63;;;11.15;69.70
4012;BME280;2020;48.682;9.024;2023-02-18T11:31:42;97098.50;;;11.17;69.81
4012;BME280;2020;48.682;9.024;2023-02-18T11:34:22;97099.31;;;11.27;69.32
4012;BME280;2020;48.682;9.024;2023-02-18T11:36:51;97087.78;;;11.20;68.62
4012;BME280;2020;48.682;9.024;2023-02-18T11:39:22;97086.94;;;11.29;68.17
4012;BME280;2020;48.682;9.024;2023-02-18T11:41:54;97086.38;;;11.35;68.46
4012;BME280;2020;48.682;9.024;2023-02-18T11:44:36;97074.41;;;11.43;67.71
4012;BME280;2020;48.682;9.024;2023-02-18T11:49:44;97067.03;;;11.56;66.18
4012;BME280;2020;48.682;9.024;2023-02-18T11:52:31;97072.44;;;11.73;65.90
4012;BME280;2020;48.682;9.024;2023-02-18T11:57:24;97076.06;;;11.62;65.53
4012;BME280;2020;48.682;9.024;2023-02-18T11:59:51;97085.97;;;11.58;65.67
4012;BME280;2020;48.682;9.024;2023-02-18T12:02:33;97072.94;;;11.58;65.83
4012;BME280;2020;48.682;9.024;2023-02-18T12:05:10;97080.47;;;11.61;65.72
4012;BME280;2020;48.682;9.024;2023-02-18T12:07:47;97071.00;;;11.60;66.06
4012;BME280;2020;48.682;9.024;2023-02-18T12:18:20;97070.03;;;11.61;65.21
4012;BME280;2020;48.682;9.024;2023-02-18T12:24:00;97067.63;;;11.50;64.58
4012;BME280;2020;48.682;9.024;2023-02-18T12:32:06;97066.75;;;11.59;64.33
4012;BME280;2020;48.682;9.024;2023-02-18T12:38:09;97070.03;;;11.61;63.78
4012;BME280;2020;48.682;9.024;2023-02-18T12:40:50;97064.22;;;11.67;63.73
4012;BME280;2020;48.682;9.024;2023-02-18T12:51:35;97058.47;;;11.64;64.07
4012;BME280;2020;48.682;9.024;2023-02-18T13:04:39;97058.63;;;11.80;61.93
4012;BME280;2020;48.682;9.024;2023-02-18T13:07:29;97046.66;;;11.69;61.41
4012;BME280;2020;48.682;9.024;2023-02-18T13:10:16;97053.78;;;11.67;62.11
4012;BME280;2020;48.682;9.024;2023-02-18T13:13:08;97050.22;;;11.68;61.94
4012;BME280;2020;48.682;9.024;2023-02-18T13:15:41;97051.03;;;11.69;61.48
4012;BME280;2020;48.682;9.024;2023-02-18T13:21:22;97039.69;;;11.78;61.82
4012;BME280;2020;48.682;9.024;2023-02-18T13:23:52;97040.25;;;11.82;61.84
4012;BME280;2020;48.682;9.024;2023-02-18T13:26:20;97047.47;;;11.88;61.82
4012;BME280;2020;48.682;9.024;2023-02-18T13:29:01;97033.09;;;11.84;61.89
4012;BME280;2020;48.682;9.024;2023-02-18T13:34:31;97026.72;;;11.87;61.20
4012;BME280;2020;48.682;9.024;2023-02-18T13:39:32;97035.69;;;11.84;61.17
4012;BME280;2020;48.682;9.024;2023-02-18T13:47:36;97013.56;;;11.88;61.51
4012;BME280;2020;48.682;9.024;2023-02-18T13:52:45;97005.06;;;11.86;61.62
4012;BME280;2020;48.682;9.024;2023-02-18T13:55:19;97011.69;;;11.80;61.19
4012;BME280;2020;48.682;9.024;2023-02-18T13:57:52;97016.41;;;11.77;61.57
4012;BME280;2020;48.682;9.024;2023-02-18T14:00:24;97020.72;;;11.86;61.42
4012;BME280;2020;48.682;9.024;2023-02-18T14:03:01;97006.09;;;11.93;61.19
4012;BME280;2020;48.682;9.024;2023-02-18T14:05:43;97014.59;;;11.95;61.55
4012;BME280;2020;48.682;9.024;2023-02-18T14:08:14;97014.59;;;11.95;61.20
4012;BME280;2020;48.682;9.024;2023-02-18T14:11:23;96999.09;;;12.12;60.86
4012;BME280;2020;48.682;9.024;2023-02-18T14:13:53;96997.16;;;12.14;60.71
4012;BME280;2020;48.682;9.024;2023-02-18T14:16:19;96996.13;;;12.07;60.89
4012;BME280;2020;48.682;9.024;2023-02-18T14:24:05;96978.38;;;11.92;62.10
4012;BME280;2020;48.682;9.024;2023-02-18T14:26:34;96966.91;;;11.85;61.35
4012;BME280;2020;48.682;9.024;2023-02-18T14:29:04;96960.56;;;11.88;61.53
4012;BME280;2020;48.682;9.024;2023-02-18T14:31:46;96978.69;;;11.89;61.57
4012;BME280;2020;48.682;9.024;2023-02-18T14:34:37;96964.59;;;11.82;61.15
4012;BME280;2020;48.682;9.024;2023-02-18T14:50:56;96961.09;;;11.91;60.99
4012;BME280;2020;48.682;9.024;2023-02-18T14:53:25;96965.28;;;11.84;61.39
4012;BME280;2020;48.682;9.024;2023-02-18T14:55:54;96972.44;;;11.82;61.63
4012;BME280;2020;48.682;9.024;2023-02-18T14:58:31;96969.88;;;11.90;61.50
4012;BME280;2020;48.682;9.024;2023-02-18T15:03:39;96964.44;;;11.83;61.58
4012;BME280;2020;48.682;9.024;2023-02-18T15:08:48;96971.53;;;11.91;61.36
4012;BME280;2020;48.682;9.024;2023-02-18T15:11:14;96962.72;;;11.92;61.50
4012;BME280;2020;48.682;9.024;2023-02-18T15:13:41;96974.50;;;11.96;61.35
4012;BME280;2020;48.682;9.024;2023-02-18T15:16:13;96981.34;;;11.97;61.12
4012;BME280;2020;48.682;9.024;2023-02-18T15:18:42;96974.50;;;11.96;61.37
4012;BME280;2020;48.682;9.024;2023-02-18T15:21:29;96966.84;;;11.95;61.33
4012;BME280;2020;48.682;9.024;2023-02-18T15:24:13;96959.75;;;11.87;61.72
4012;BME280;2020;48.682;9.024;2023-02-18T15:26:44;96970.50;;;11.84;62.20
4012;BME280;2020;48.682;9.024;2023-02-18T15:29:17;96970.19;;;11.87;62.51
4012;BME280;2020;48.682;9.024;2023-02-18T15:31:45;96971.28;;;11.84;62.62
4012;BME280;2020;48.682;9.024;2023-02-18T15:34:36;96968.50;;;11.78;62.78
4012;BME280;2020;48.682;9.024;2023-02-18T15:37:06;96968.13;;;11.73;63.29
4012;BME280;2020;48.682;9.024;2023-02-18T15:39:33;96975.56;;;11.67;63.29
4012;BME280;2020;48.682;9.024;2023-02-18T15:42:01;96978.31;;;11.66;63.35
4012;BME280;2020;48.682;9.024;2023-02-18T15:44:31;96974.75;;;11.67;63.26
4012;BME280;2020;48.682;9.024;2023-02-18T15:47:00;96970.50;;;11.84;63.24
4012;BME280;2020;48.682;9.024;2023-02-18T15:49:27;96986.56;;;11.97;62.58
4012;BME280;2020;48.682;9.024;2023-02-18T15:51:57;96974.94;;;12.10;62.35